Terminal Aerodrome Forecast
Issued by NWS

Home | Current Version | Previous Version | Text Only | Print | Product List | Glossary On
Versions: 1 2 3 4 5 6 7 8 9 10 11 12 13 14 15 16 17 18 19 20 21 22 23 24 25 26 27 28 29 30
000
FTUS43 KMKX 291857 AAA
TAFUES
TAF AMD
KUES 291857Z 2919/3018 05009KT P6SM SCT035
     FM300000 06006KT P6SM SCT120
     FM300600 05004KT P6SM BKN090
     FM301200 08008KT P6SM OVC045
     FM301500 08012G20KT P6SM OVC120=

USA.gov is the U.S. government's official web portal to all federal, state and local government web resources and services.